Norway, SC (29113)

7:37 PM EST on December 27, 2014 (GMT -0500)
Morgantown | Change Station
CLOSE
Current Station
Personal Weather Station
Location: Springfield, SC
Elevation: 243 ft
Nearby Weather Stations

Elev 243 ft 33.48 °N, 81.24 °W | Updated 4 seconds ago

Partly Cloudy
Partly Cloudy
52.3 °F
Feels Like 52.3 °F
N
0.0
Wind Variable Wind from SW
Gusts 0.0 mph

Today
High -- | Low -- °F
--% Chance of Precip.
Yesterday
High -- | Low -- °F
Precip. -- in
7:27 AM 5:24 PM
Waxing Crescent, 41% visible
Pressure 30.25 in
Visibility 10.0 miles
Clouds Clear
Dew Point 49 °F
Humidity 88%
Rainfall 0.00 in
Snow Depth Not available.
UV 0.0 out of 12
Pollen .10 out of 12
Air Quality Not available.
Flu Activity Not available.
METAR KOGB 272353Z AUTO 00000KT 10SM CLR 13/09 A3024 RMK AO2 SLP242 T01280094 10194 20128 53005

More Conditions Fewer Conditions

Pressure 30.25 in
Visibility 10.0 miles
Clouds Clear
Dew Point 49 °F
Humidity 88%
Rainfall 0.00 in
Snow Depth Not available.
UV 0.0 out of 12
Pollen .10 out of 12
Air Quality Not available.
Flu Activity Not available.
METAR KOGB 272353Z AUTO 00000KT 10SM CLR 13/09 A3024 RMK AO2 SLP242 T01280094 10194 20128 53005

More Conditions Fewer Conditions

10-Day Weather Forecast

Almanac

Astronomy

Dec. 27, 2014 Rise Set
Actual Time
Civil Twilight
Nautical Twilight
Astronomical Twilight
Moon
Length of Visible Light
Length of Day
Tomorrow will be .
, % of the Moon is Illuminated

Today's Extremes

State Highs State Lows

Community

WunderPhotos

Upload Photos

1,781,116 photos uploaded!

WunderBlogs® & News

Nearby

Air Quality

  Air Quality AQ Index Pollutant
Not available.

Snow Depth

Station Depth Elevation

Earthquake Activity

City Distance Mag. Time & Date
Minimum magnitude displayed is 2.5.

Coastal Water Temperatures

Place Temperature

Nearby Weather Stations